createdAt,value
2017-12-23T00:00:27.342Z,20.70
2017-12-23T00:01:32.441Z,20.70
2017-12-23T00:02:37.494Z,20.70
2017-12-23T00:03:42.630Z,20.70
2017-12-23T00:04:47.499Z,20.70
2017-12-23T00:05:52.624Z,20.70
2017-12-23T00:06:58.159Z,20.70
2017-12-23T00:08:03.176Z,20.60
2017-12-23T00:09:08.353Z,20.70
2017-12-23T00:10:13.447Z,20.60
2017-12-23T00:11:18.490Z,20.70
2017-12-23T00:12:23.432Z,20.70
2017-12-23T00:13:28.371Z,20.70
2017-12-23T00:14:33.547Z,20.70
2017-12-23T00:15:38.426Z,20.70
2017-12-23T00:16:43.291Z,20.60
2017-12-23T00:17:48.102Z,20.60
2017-12-23T00:18:53.024Z,20.60
2017-12-23T00:19:58.051Z,20.60
2017-12-23T00:21:03.382Z,20.60
2017-12-23T00:22:08.409Z,20.60
2017-12-23T00:23:13.508Z,20.60
2017-12-23T00:24:19.509Z,20.60
2017-12-23T00:27:40.180Z,20.70
2017-12-23T00:28:46.006Z,20.60
2017-12-23T00:29:51.879Z,20.60
2017-12-23T00:30:57.747Z,20.70
2017-12-23T00:32:03.305Z,20.70
2017-12-23T00:33:09.259Z,20.70
2017-12-23T00:34:15.049Z,20.70
2017-12-23T00:35:20.599Z,20.70
2017-12-23T00:36:26.109Z,20.70
2017-12-23T00:37:31.658Z,20.70
2017-12-23T00:38:37.592Z,20.70
2017-12-23T00:39:43.465Z,20.70
2017-12-23T00:40:50.290Z,20.70
2017-12-23T00:41:56.388Z,20.70
2017-12-23T00:43:03.194Z,20.70
2017-12-23T00:44:08.887Z,20.70
2017-12-23T00:45:14.056Z,20.70
2017-12-23T00:46:19.831Z,20.70
2017-12-23T00:47:25.852Z,20.70
2017-12-23T00:48:31.991Z,20.70
2017-12-23T00:49:38.071Z,20.70
2017-12-23T00:50:43.913Z,20.70
2017-12-23T00:51:49.767Z,20.70
2017-12-23T00:53:00.339Z,20.70
2017-12-23T00:54:07.377Z,20.70
2017-12-23T00:55:12.876Z,20.70
2017-12-23T00:56:18.544Z,20.70
2017-12-23T00:57:24.254Z,20.70
2017-12-23T00:58:30.262Z,20.70
2017-12-23T00:59:35.509Z,20.70
2017-12-23T01:00:40.550Z,20.70
2017-12-23T01:01:45.805Z,20.70
2017-12-23T01:02:51.067Z,20.70
2017-12-23T01:03:56.291Z,20.70
2017-12-23T01:05:01.307Z,20.70
2017-12-23T01:06:06.561Z,20.70
2017-12-23T01:07:11.729Z,20.80
2017-12-23T01:08:17.791Z,20.70
2017-12-23T01:09:23.053Z,20.70
2017-12-23T01:10:28.379Z,20.70
2017-12-23T01:11:33.421Z,20.70
2017-12-23T01:12:38.689Z,20.70
2017-12-23T01:13:43.616Z,20.70
2017-12-23T01:14:48.634Z,20.70
2017-12-23T01:15:53.707Z,20.60
2017-12-23T01:16:58.780Z,20.60
2017-12-23T01:18:03.954Z,20.70
2017-12-23T01:19:08.914Z,20.60
2017-12-23T01:20:13.946Z,20.60
2017-12-23T01:21:19.095Z,20.60
2017-12-23T01:22:24.034Z,20.70
2017-12-23T01:23:29.146Z,20.60
2017-12-23T01:24:34.197Z,20.60
2017-12-23T01:25:39.294Z,20.60
2017-12-23T01:26:44.473Z,20.60
2017-12-23T01:27:49.417Z,20.60
2017-12-23T01:28:54.578Z,20.60
2017-12-23T01:29:59.473Z,20.60
2017-12-23T01:31:04.550Z,20.60
2017-12-23T01:32:09.401Z,20.60
2017-12-23T01:33:14.503Z,20.60
2017-12-23T01:34:19.435Z,20.60
2017-12-23T01:35:24.479Z,20.60
2017-12-23T01:36:29.498Z,20.60
2017-12-23T01:37:34.460Z,20.60
2017-12-23T01:38:39.751Z,20.60
2017-12-23T01:39:44.815Z,20.60
2017-12-23T01:40:50.008Z,20.60
2017-12-23T01:41:54.976Z,20.60
2017-12-23T01:43:00.047Z,20.60
2017-12-23T01:44:05.041Z,20.60
2017-12-23T01:45:10.141Z,20.60
2017-12-23T01:46:15.178Z,20.60
2017-12-23T01:47:20.216Z,20.60
2017-12-23T01:48:25.259Z,20.60
2017-12-23T01:49:30.281Z,20.60
2017-12-23T01:50:35.316Z,20.60
2017-12-23T01:51:40.387Z,20.60
2017-12-23T01:52:45.525Z,20.60
2017-12-23T01:53:50.582Z,20.60
2017-12-23T01:54:55.763Z,20.60
2017-12-23T01:56:00.964Z,20.60
2017-12-23T01:57:05.950Z,20.60
2017-12-23T01:58:10.848Z,20.60
2017-12-23T01:59:15.761Z,20.60
2017-12-23T02:00:20.513Z,20.60
2017-12-23T02:01:25.319Z,20.60
2017-12-23T02:02:30.168Z,20.60
2017-12-23T02:03:35.208Z,20.60
2017-12-23T02:04:40.236Z,20.60
2017-12-23T02:05:45.258Z,20.60
2017-12-23T02:06:50.150Z,20.60
2017-12-23T02:07:55.019Z,20.60
2017-12-23T02:08:59.781Z,20.60
2017-12-23T02:10:04.791Z,20.60
2017-12-23T02:11:09.655Z,20.60
2017-12-23T02:12:14.717Z,20.60
2017-12-23T02:13:19.470Z,20.60
2017-12-23T02:14:24.272Z,20.60
2017-12-23T02:15:29.331Z,20.60
2017-12-23T02:16:34.289Z,20.60
2017-12-23T02:17:39.407Z,20.60
2017-12-23T02:18:44.464Z,20.60
2017-12-23T02:19:49.937Z,20.60
2017-12-23T02:20:54.746Z,20.60
2017-12-23T02:21:59.508Z,20.60
2017-12-23T02:23:04.403Z,20.60
2017-12-23T02:24:09.106Z,20.60
2017-12-23T02:25:13.875Z,20.60
2017-12-23T02:26:19.479Z,20.60
2017-12-23T02:27:24.446Z,20.60
2017-12-23T02:28:29.417Z,20.60
2017-12-23T02:29:34.229Z,20.60
2017-12-23T02:30:39.015Z,20.60
2017-12-23T02:31:44.040Z,20.60
2017-12-23T02:32:48.858Z,20.60
2017-12-23T02:33:53.775Z,20.60
2017-12-23T02:34:58.647Z,20.60
2017-12-23T02:36:03.785Z,20.60
2017-12-23T02:37:08.534Z,20.60
2017-12-23T02:38:13.600Z,20.60
2017-12-23T02:39:18.534Z,20.60
2017-12-23T02:40:23.417Z,20.60
2017-12-23T02:41:28.270Z,20.60
2017-12-23T02:42:33.112Z,20.50
2017-12-23T02:43:37.933Z,20.60
2017-12-23T02:44:42.696Z,20.60
2017-12-23T02:45:47.499Z,20.60
2017-12-23T02:46:52.365Z,20.60
2017-12-23T02:47:57.169Z,20.60
2017-12-23T02:49:01.961Z,20.60
2017-12-23T02:50:07.050Z,20.60
2017-12-23T02:51:12.484Z,20.60
2017-12-23T02:52:18.052Z,20.60
2017-12-23T02:53:23.494Z,20.60
2017-12-23T02:54:28.917Z,20.60
2017-12-23T02:55:35.387Z,20.60
2017-12-23T02:56:40.996Z,20.60
2017-12-23T02:57:46.372Z,20.70
2017-12-23T02:58:51.849Z,20.70
2017-12-23T02:59:57.219Z,20.70
2017-12-23T03:01:02.666Z,20.70
2017-12-23T03:02:07.965Z,20.70
2017-12-23T03:03:13.620Z,20.70
2017-12-23T03:04:19.329Z,20.70
2017-12-23T03:05:24.615Z,20.70
2017-12-23T03:06:29.536Z,20.70
2017-12-23T03:07:34.330Z,20.70
2017-12-23T03:08:39.203Z,20.70
2017-12-23T03:09:43.928Z,20.70
2017-12-23T03:10:48.810Z,20.70
2017-12-23T03:11:53.687Z,20.70
2017-12-23T03:12:58.474Z,20.60
2017-12-23T03:14:04.112Z,20.60
2017-12-23T03:15:09.107Z,20.60
2017-12-23T03:16:14.082Z,20.60
2017-12-23T03:17:18.913Z,20.60
2017-12-23T03:18:23.865Z,20.60
2017-12-23T03:19:28.677Z,20.60
2017-12-23T03:20:33.426Z,20.60
2017-12-23T03:21:38.935Z,20.60
2017-12-23T03:22:43.768Z,20.60
2017-12-23T03:23:48.677Z,20.60
2017-12-23T03:24:53.556Z,20.60
2017-12-23T03:25:58.419Z,20.60
2017-12-23T03:27:03.460Z,20.60
2017-12-23T03:28:08.231Z,20.60
2017-12-23T03:29:13.106Z,20.60
2017-12-23T03:30:17.869Z,20.60
2017-12-23T03:31:22.675Z,20.60
2017-12-23T03:32:27.589Z,20.60
2017-12-23T03:33:32.357Z,20.60
2017-12-23T03:34:37.266Z,20.60
2017-12-23T03:35:42.085Z,20.60
2017-12-23T03:36:46.964Z,20.60
2017-12-23T03:37:51.793Z,20.60
2017-12-23T03:38:56.559Z,20.60
2017-12-23T03:40:01.474Z,20.60
2017-12-23T03:41:06.340Z,20.60
2017-12-23T03:42:11.269Z,20.60
2017-12-23T03:43:16.059Z,20.60
2017-12-23T03:44:21.092Z,20.60
2017-12-23T03:45:25.958Z,20.60
2017-12-23T03:46:30.803Z,20.60
2017-12-23T03:47:35.680Z,20.60
2017-12-23T03:48:40.618Z,20.60
2017-12-23T03:49:45.388Z,20.60
2017-12-23T03:50:50.766Z,20.60
2017-12-23T03:51:55.569Z,20.70
2017-12-23T03:53:00.471Z,20.60
2017-12-23T03:54:05.237Z,20.60
2017-12-23T03:55:09.939Z,20.60
2017-12-23T03:56:14.769Z,20.60
2017-12-23T03:57:19.586Z,20.60
2017-12-23T03:58:24.414Z,20.60
2017-12-23T03:59:29.307Z,20.60
2017-12-23T04:00:34.142Z,20.60
2017-12-23T04:01:38.914Z,20.60
2017-12-23T04:02:43.649Z,20.60
2017-12-23T04:03:48.469Z,20.60
2017-12-23T04:04:53.343Z,20.60
2017-12-23T04:05:58.479Z,20.60
2017-12-23T04:07:03.331Z,20.60
2017-12-23T04:08:08.092Z,20.60
2017-12-23T04:09:13.672Z,20.60
2017-12-23T04:10:18.469Z,20.60
2017-12-23T04:11:23.359Z,20.60
2017-12-23T04:12:28.074Z,20.60
2017-12-23T04:13:32.909Z,20.60
2017-12-23T04:14:37.729Z,20.60
2017-12-23T04:15:43.015Z,20.60
2017-12-23T04:16:47.816Z,20.60
2017-12-23T04:17:52.604Z,20.60
2017-12-23T04:18:57.477Z,20.60
2017-12-23T04:20:02.352Z,20.60
2017-12-23T04:21:07.129Z,20.60
2017-12-23T04:22:11.918Z,20.60
2017-12-23T04:23:16.723Z,20.60
2017-12-23T04:24:21.558Z,20.60
2017-12-23T04:25:26.465Z,20.60
2017-12-23T04:26:31.177Z,20.60
2017-12-23T04:27:37.420Z,20.60
2017-12-23T04:28:42.298Z,20.60
2017-12-23T04:29:47.070Z,20.60
2017-12-23T04:30:51.918Z,20.60
2017-12-23T04:31:56.800Z,20.60
2017-12-23T04:33:01.782Z,20.60
2017-12-23T04:34:06.532Z,20.60
2017-12-23T04:35:11.298Z,20.60
2017-12-23T04:36:15.982Z,20.60
2017-12-23T04:37:20.851Z,20.60
2017-12-23T04:38:25.757Z,20.60
2017-12-23T04:39:30.547Z,20.60
2017-12-23T04:40:35.399Z,20.60
2017-12-23T04:41:40.199Z,20.60
2017-12-23T04:42:45.856Z,20.60
2017-12-23T04:43:50.725Z,20.60
2017-12-23T04:44:55.462Z,20.60
2017-12-23T04:46:01.617Z,20.60
2017-12-23T04:47:06.741Z,20.60
2017-12-23T04:48:11.721Z,20.60
2017-12-23T04:49:16.523Z,20.60
2017-12-23T04:50:21.582Z,20.60
2017-12-23T04:51:26.573Z,20.60
2017-12-23T04:52:31.598Z,20.60
2017-12-23T04:53:36.425Z,20.60
2017-12-23T04:54:41.274Z,20.60
2017-12-23T04:55:46.245Z,20.60
2017-12-23T04:56:51.210Z,20.60
2017-12-23T04:57:56.175Z,20.60
2017-12-23T04:59:01.106Z,20.60
2017-12-23T05:00:05.868Z,20.60
2017-12-23T05:01:10.766Z,20.60
2017-12-23T05:02:15.591Z,20.60
2017-12-23T05:03:20.507Z,20.60
2017-12-23T05:04:26.064Z,20.60
2017-12-23T05:05:30.915Z,20.60
2017-12-23T05:06:35.820Z,20.60
2017-12-23T05:07:40.687Z,20.60
2017-12-23T05:08:45.589Z,20.60
2017-12-23T05:09:50.446Z,20.60
2017-12-23T05:10:55.332Z,20.60
2017-12-23T05:12:01.454Z,20.60
2017-12-23T05:13:06.390Z,20.60
2017-12-23T05:14:11.205Z,20.50
2017-12-23T05:15:15.969Z,20.60
2017-12-23T05:16:20.759Z,20.60
2017-12-23T05:17:25.699Z,20.60
2017-12-23T05:18:30.454Z,20.60
2017-12-23T05:19:35.205Z,20.60
2017-12-23T05:20:40.058Z,20.60
2017-12-23T05:21:44.771Z,20.60
2017-12-23T05:22:50.094Z,20.60
2017-12-23T05:23:54.822Z,20.60
2017-12-23T05:24:59.702Z,20.60
2017-12-23T05:26:04.487Z,20.60
2017-12-23T05:27:09.291Z,20.60
2017-12-23T05:28:14.066Z,20.60
2017-12-23T05:29:18.858Z,20.60
2017-12-23T05:30:23.657Z,20.60
2017-12-23T05:31:28.468Z,20.60
2017-12-23T05:32:33.262Z,20.60
2017-12-23T05:33:37.994Z,20.60
2017-12-23T05:34:42.736Z,20.60
2017-12-23T05:35:47.627Z,20.60
2017-12-23T05:36:52.359Z,20.50
2017-12-23T05:37:57.170Z,20.60
2017-12-23T05:39:02.032Z,20.60
2017-12-23T05:40:06.955Z,20.60
2017-12-23T05:41:13.021Z,20.60
2017-12-23T05:42:18.053Z,20.60
2017-12-23T05:43:23.023Z,20.60
2017-12-23T05:44:27.951Z,20.60
2017-12-23T05:45:32.810Z,20.60
2017-12-23T05:46:37.591Z,20.50
2017-12-23T05:47:42.632Z,20.60
2017-12-23T05:48:47.552Z,20.60
2017-12-23T05:49:52.509Z,20.60
2017-12-23T05:50:57.319Z,20.60
2017-12-23T05:52:02.139Z,20.60
2017-12-23T05:53:06.994Z,20.60
2017-12-23T05:54:11.933Z,20.60
2017-12-23T05:55:16.751Z,20.50
2017-12-23T05:56:21.763Z,20.50
2017-12-23T05:57:26.680Z,20.50
2017-12-23T05:58:31.558Z,20.50
2017-12-23T05:59:36.499Z,20.60
2017-12-23T06:00:41.508Z,20.50
2017-12-23T06:01:47.029Z,20.50
2017-12-23T06:02:52.006Z,20.50
2017-12-23T06:03:56.853Z,20.50
2017-12-23T06:05:01.765Z,20.50
2017-12-23T06:06:06.571Z,20.50
2017-12-23T06:07:11.424Z,20.50
2017-12-23T06:08:16.496Z,20.50
2017-12-23T06:09:21.433Z,20.50
2017-12-23T06:10:26.314Z,20.50
2017-12-23T06:11:31.436Z,20.50
2017-12-23T06:12:36.623Z,20.50
2017-12-23T06:13:41.424Z,20.50
2017-12-23T06:14:46.236Z,20.60
2017-12-23T06:15:51.209Z,20.50
2017-12-23T06:16:55.978Z,20.50
2017-12-23T06:18:00.945Z,20.60
2017-12-23T06:19:05.833Z,20.50
2017-12-23T06:20:10.802Z,20.60
2017-12-23T06:21:15.832Z,20.50
2017-12-23T06:22:20.718Z,20.50
2017-12-23T06:23:25.772Z,20.50
2017-12-23T06:24:30.956Z,20.50
2017-12-23T06:25:36.301Z,20.50
2017-12-23T06:26:41.231Z,20.50
2017-12-23T06:27:46.179Z,20.50
2017-12-23T06:28:51.006Z,20.50
2017-12-23T06:29:56.232Z,20.50
2017-12-23T06:31:01.210Z,20.50
2017-12-23T06:32:06.039Z,20.50
2017-12-23T06:33:10.826Z,20.50
2017-12-23T06:34:15.708Z,20.50
2017-12-23T06:35:20.594Z,20.50
2017-12-23T06:36:25.428Z,20.50
2017-12-23T06:37:30.223Z,20.50
2017-12-23T06:38:35.062Z,20.50
2017-12-23T06:39:39.887Z,20.50
2017-12-23T06:40:44.669Z,20.50
2017-12-23T06:41:49.633Z,20.50
2017-12-23T06:42:54.449Z,20.50
2017-12-23T06:43:59.270Z,20.50
2017-12-23T06:45:04.093Z,20.50
2017-12-23T06:46:08.954Z,20.50
2017-12-23T06:47:14.097Z,20.50
2017-12-23T06:48:19.849Z,20.50
2017-12-23T06:49:24.746Z,20.50
2017-12-23T06:50:29.665Z,20.50
2017-12-23T06:51:34.414Z,20.50
2017-12-23T06:52:39.157Z,20.50
2017-12-23T06:53:43.913Z,20.50
2017-12-23T06:54:48.668Z,20.60
2017-12-23T06:55:53.564Z,20.50
2017-12-23T06:56:58.609Z,20.60
2017-12-23T06:58:03.474Z,20.60
2017-12-23T06:59:08.432Z,20.50
2017-12-23T07:00:13.287Z,20.60
2017-12-23T07:01:18.145Z,20.60
2017-12-23T07:02:22.920Z,20.60
2017-12-23T07:03:27.741Z,20.60
2017-12-23T07:04:32.522Z,20.50
2017-12-23T07:05:37.440Z,20.60
2017-12-23T07:06:43.132Z,20.60
2017-12-23T07:07:48.038Z,20.60
2017-12-23T07:08:53.067Z,20.60
2017-12-23T07:09:58.292Z,20.60
2017-12-23T07:11:03.319Z,20.50
2017-12-23T07:12:08.160Z,20.40
2017-12-23T07:13:13.298Z,20.30
2017-12-23T07:14:18.223Z,20.20
2017-12-23T07:15:23.225Z,20.20
2017-12-23T07:16:28.215Z,20.00
2017-12-23T07:17:33.125Z,20.00
2017-12-23T07:18:38.028Z,19.90
2017-12-23T07:19:42.875Z,19.80
2017-12-23T07:20:47.820Z,19.80
2017-12-23T07:21:52.802Z,19.80
2017-12-23T07:22:57.746Z,19.70
2017-12-23T07:24:02.627Z,19.70
2017-12-23T07:25:07.828Z,19.70
2017-12-23T07:26:12.783Z,19.70
2017-12-23T07:27:17.711Z,19.70
2017-12-23T07:28:24.154Z,19.60
2017-12-23T07:29:28.996Z,19.70
2017-12-23T07:30:34.026Z,19.80
2017-12-23T07:31:39.005Z,19.80
2017-12-23T07:32:44.016Z,19.80
2017-12-23T07:33:49.970Z,19.90
2017-12-23T07:34:55.244Z,20.00
2017-12-23T07:36:00.247Z,20.00
2017-12-23T07:37:06.105Z,20.10
2017-12-23T07:38:11.297Z,20.20
2017-12-23T07:39:16.404Z,20.20
2017-12-23T07:40:21.406Z,20.30
2017-12-23T07:41:26.489Z,20.30
2017-12-23T07:42:31.533Z,20.40
2017-12-23T07:43:36.709Z,20.40
2017-12-23T07:44:41.633Z,20.50
2017-12-23T07:45:46.505Z,20.50
2017-12-23T07:46:51.428Z,20.50
2017-12-23T07:47:56.271Z,20.50
2017-12-23T07:49:01.306Z,20.60
2017-12-23T07:50:06.388Z,20.60
2017-12-23T07:51:11.379Z,20.60
2017-12-23T07:52:16.435Z,20.60
2017-12-23T07:53:21.422Z,20.60
2017-12-23T07:54:26.323Z,20.70
2017-12-23T07:55:31.245Z,20.70
2017-12-23T07:56:36.180Z,20.70
2017-12-23T07:57:41.161Z,20.70
2017-12-23T07:58:46.141Z,20.70
2017-12-23T07:59:51.360Z,20.70
2017-12-23T08:00:56.643Z,20.80
2017-12-23T08:02:02.354Z,20.80
2017-12-23T08:03:07.161Z,20.80
2017-12-23T08:04:11.957Z,20.80
2017-12-23T08:05:16.721Z,20.80
2017-12-23T08:06:21.496Z,20.80
2017-12-23T08:07:26.327Z,20.80
2017-12-23T08:08:31.339Z,20.80
2017-12-23T08:09:36.295Z,20.80
2017-12-23T08:10:41.062Z,20.80
2017-12-23T08:11:45.925Z,20.80
2017-12-23T08:12:50.947Z,20.80
2017-12-23T08:13:55.883Z,20.80
2017-12-23T08:15:01.318Z,20.80
2017-12-23T08:16:07.686Z,20.80
2017-12-23T08:17:13.698Z,20.80
2017-12-23T08:18:18.546Z,20.80
2017-12-23T08:19:23.644Z,20.80
2017-12-23T08:20:28.408Z,20.80
2017-12-23T08:21:33.120Z,20.80
2017-12-23T08:22:38.040Z,20.80
2017-12-23T08:23:42.787Z,20.80
2017-12-23T08:24:47.686Z,20.80
2017-12-23T08:25:52.411Z,20.80
2017-12-23T08:26:57.193Z,20.80
2017-12-23T08:28:02.106Z,20.80
2017-12-23T08:29:06.842Z,20.80
2017-12-23T08:30:11.680Z,20.80
2017-12-23T08:31:16.507Z,20.80
2017-12-23T08:32:21.288Z,20.80
2017-12-23T08:33:26.194Z,20.80
2017-12-23T08:34:30.991Z,20.80
2017-12-23T08:35:36.436Z,20.90
2017-12-23T08:36:41.415Z,20.80
2017-12-23T08:37:46.239Z,20.70
2017-12-23T08:38:51.114Z,20.80
2017-12-23T08:39:55.973Z,20.90
2017-12-23T08:41:00.794Z,20.90
2017-12-23T08:42:05.597Z,20.90
2017-12-23T08:43:10.489Z,20.90
2017-12-23T08:44:15.441Z,20.90
2017-12-23T08:45:20.308Z,20.90
2017-12-23T08:46:25.271Z,20.90
2017-12-23T08:47:30.208Z,20.90
2017-12-23T08:48:35.137Z,20.90
2017-12-23T08:49:40.108Z,20.80
2017-12-23T08:50:45.063Z,20.80
2017-12-23T08:51:50.265Z,20.90
2017-12-23T08:52:55.278Z,20.80
2017-12-23T08:54:01.318Z,20.80
2017-12-23T08:55:06.364Z,20.80
2017-12-23T08:56:11.360Z,20.80
2017-12-23T08:57:16.440Z,20.80
2017-12-23T08:58:21.494Z,20.80
2017-12-23T08:59:26.396Z,20.80
2017-12-23T09:00:31.427Z,20.80
2017-12-23T09:01:36.437Z,20.80
2017-12-23T09:02:41.399Z,20.80
2017-12-23T09:03:46.408Z,20.80
2017-12-23T09:04:51.368Z,20.90
2017-12-23T09:05:56.448Z,20.90
2017-12-23T09:07:01.289Z,20.90
2017-12-23T09:08:06.213Z,20.90
2017-12-23T09:09:11.255Z,20.90
2017-12-23T09:10:16.496Z,20.90
2017-12-23T09:11:21.472Z,20.90
2017-12-23T09:12:27.221Z,20.90
2017-12-23T09:13:32.285Z,20.90
2017-12-23T09:14:37.241Z,20.90
2017-12-23T09:15:42.280Z,20.90
2017-12-23T09:16:47.193Z,20.90
2017-12-23T09:17:52.064Z,20.90
2017-12-23T09:18:56.945Z,20.90
2017-12-23T09:20:02.040Z,20.90
2017-12-23T09:21:07.008Z,20.80
2017-12-23T09:22:11.993Z,20.80
2017-12-23T09:23:16.818Z,20.80
2017-12-23T09:24:21.666Z,20.80
2017-12-23T09:25:26.960Z,20.80
2017-12-23T09:26:32.722Z,20.80
2017-12-23T09:27:37.647Z,20.80
2017-12-23T09:28:42.557Z,20.80
2017-12-23T09:29:47.544Z,20.80
2017-12-23T09:30:52.604Z,20.80
2017-12-23T09:31:57.473Z,20.80
2017-12-23T09:33:02.363Z,20.70
2017-12-23T09:34:07.332Z,20.80
2017-12-23T09:35:12.171Z,20.80
2017-12-23T09:36:17.242Z,20.80
2017-12-23T09:37:22.050Z,20.80
2017-12-23T09:38:26.899Z,20.80
2017-12-23T09:39:31.749Z,20.80
2017-12-23T09:40:36.909Z,20.80
2017-12-23T09:41:41.786Z,20.80
2017-12-23T09:42:46.654Z,20.80
2017-12-23T09:43:51.614Z,20.80
2017-12-23T09:44:56.704Z,20.80
2017-12-23T09:46:01.833Z,20.80
2017-12-23T09:47:07.133Z,20.80
2017-12-23T09:48:12.509Z,20.80
2017-12-23T09:49:17.942Z,20.80
2017-12-23T09:50:22.902Z,20.80
2017-12-23T09:51:28.015Z,20.80
2017-12-23T09:52:33.013Z,20.80
2017-12-23T09:53:38.186Z,20.80
2017-12-23T09:54:43.276Z,20.80
2017-12-23T09:55:48.714Z,20.80
2017-12-23T09:56:54.274Z,20.80
2017-12-23T09:57:59.413Z,20.80
2017-12-23T09:59:04.542Z,20.80
2017-12-23T10:00:09.764Z,20.80
2017-12-23T10:01:14.849Z,20.80
2017-12-23T10:02:19.808Z,20.80
2017-12-23T10:03:25.106Z,20.90
2017-12-23T10:04:30.122Z,20.80
2017-12-23T10:05:35.624Z,20.80
2017-12-23T10:06:40.459Z,20.80
2017-12-23T10:07:45.535Z,20.80
2017-12-23T10:08:50.657Z,20.80
2017-12-23T10:09:55.570Z,20.80
2017-12-23T10:11:00.585Z,20.80
2017-12-23T10:12:05.669Z,20.80
2017-12-23T10:13:10.857Z,20.80
2017-12-23T10:14:16.149Z,20.80
2017-12-23T10:15:21.639Z,20.80
2017-12-23T10:16:27.088Z,20.80
2017-12-23T10:17:32.260Z,20.80
2017-12-23T10:18:37.183Z,20.80
2017-12-23T10:19:42.309Z,20.80
2017-12-23T10:20:47.407Z,20.80
2017-12-23T10:21:52.590Z,20.80
2017-12-23T10:22:57.643Z,20.80
2017-12-23T10:24:02.652Z,20.80
2017-12-23T10:25:07.601Z,20.80
2017-12-23T10:26:12.563Z,20.80
2017-12-23T10:27:29.374Z,20.80
2017-12-23T10:28:34.409Z,20.80
2017-12-23T10:29:39.516Z,20.80
2017-12-23T10:30:44.424Z,20.80
2017-12-23T10:31:49.283Z,20.80
2017-12-23T10:32:54.107Z,20.70
2017-12-23T10:33:59.009Z,20.80
2017-12-23T10:35:03.953Z,20.80
2017-12-23T10:36:09.062Z,20.70
2017-12-23T10:37:14.042Z,20.70
2017-12-23T10:38:19.059Z,20.80
2017-12-23T10:39:23.810Z,20.80
2017-12-23T10:40:28.673Z,20.70
2017-12-23T10:41:33.537Z,20.80
2017-12-23T10:42:38.535Z,20.70
2017-12-23T10:43:43.374Z,20.70
2017-12-23T10:44:48.356Z,20.70
2017-12-23T10:45:53.348Z,20.80
2017-12-23T10:46:58.135Z,20.80
2017-12-23T10:48:03.187Z,20.80
2017-12-23T10:49:08.109Z,20.80
2017-12-23T10:50:13.165Z,20.80
2017-12-23T10:51:18.555Z,20.80
2017-12-23T10:52:23.603Z,20.70
2017-12-23T10:53:28.634Z,20.80
2017-12-23T10:54:34.506Z,20.80
2017-12-23T10:55:40.379Z,20.70
2017-12-23T10:56:45.360Z,20.70
2017-12-23T10:57:50.138Z,20.70
2017-12-23T10:58:55.178Z,20.70
2017-12-23T11:00:00.710Z,20.70
2017-12-23T11:01:05.618Z,20.70
2017-12-23T11:02:10.593Z,20.70
2017-12-23T11:03:15.780Z,20.70
2017-12-23T11:04:20.842Z,20.70
2017-12-23T11:05:25.840Z,20.70
2017-12-23T11:06:31.028Z,20.70
2017-12-23T11:07:36.006Z,20.70
2017-12-23T11:08:42.020Z,20.70
2017-12-23T11:09:47.076Z,20.70
2017-12-23T11:10:52.951Z,20.70
2017-12-23T11:11:58.303Z,20.70
2017-12-23T11:13:03.429Z,20.70
2017-12-23T11:14:08.478Z,20.70
2017-12-23T11:15:13.498Z,20.70
2017-12-23T11:16:18.589Z,20.70
2017-12-23T11:17:23.638Z,20.70
2017-12-23T11:18:28.661Z,20.70
2017-12-23T11:19:33.838Z,20.70
2017-12-23T11:20:39.138Z,20.70
2017-12-23T11:21:44.385Z,20.70
2017-12-23T11:22:50.807Z,20.70
2017-12-23T11:23:56.164Z,20.70
2017-12-23T11:25:01.506Z,20.70
2017-12-23T11:26:06.794Z,20.70
2017-12-23T11:27:11.978Z,20.70
2017-12-23T11:28:17.215Z,20.70
2017-12-23T11:29:22.173Z,20.70
2017-12-23T11:30:27.824Z,20.70
2017-12-23T11:31:32.975Z,20.70
2017-12-23T11:32:37.949Z,20.80
2017-12-23T11:33:42.976Z,20.80
2017-12-23T11:34:47.947Z,20.80
2017-12-23T11:35:52.884Z,20.80
2017-12-23T11:36:58.013Z,20.70
2017-12-23T11:38:02.978Z,20.60
2017-12-23T11:39:07.922Z,20.60
2017-12-23T11:40:13.444Z,20.50
2017-12-23T11:41:19.822Z,20.50
2017-12-23T11:42:26.006Z,20.50
2017-12-23T11:43:31.152Z,20.50
2017-12-23T11:44:36.238Z,20.50
2017-12-23T11:45:41.340Z,20.60
2017-12-23T11:46:46.376Z,20.60
2017-12-23T11:47:51.493Z,20.60
2017-12-23T11:48:56.503Z,20.60
2017-12-23T11:50:01.647Z,20.60
2017-12-23T11:51:06.927Z,20.60
2017-12-23T11:52:11.779Z,20.60
2017-12-23T11:53:16.702Z,20.70
2017-12-23T11:54:21.973Z,20.70
2017-12-23T11:55:26.879Z,20.70
2017-12-23T11:56:31.784Z,20.70
2017-12-23T11:57:37.251Z,20.70
2017-12-23T11:58:42.250Z,20.70
2017-12-23T11:59:47.383Z,20.70
2017-12-23T12:00:52.604Z,20.70
2017-12-23T12:01:57.465Z,20.70
2017-12-23T12:03:02.571Z,20.70
2017-12-23T12:04:07.438Z,20.70
2017-12-23T12:05:12.376Z,20.70
2017-12-23T12:06:17.453Z,20.80
2017-12-23T12:07:22.486Z,20.80
2017-12-23T12:08:27.348Z,20.80
2017-12-23T12:09:32.125Z,20.90
2017-12-23T12:10:37.026Z,20.90
2017-12-23T12:11:42.031Z,20.90
2017-12-23T12:12:46.924Z,20.90
2017-12-23T12:13:51.789Z,20.90
2017-12-23T12:14:56.663Z,20.90
2017-12-23T12:16:01.534Z,20.90
2017-12-23T12:17:06.469Z,20.90
2017-12-23T12:18:11.450Z,20.90
2017-12-23T12:19:16.657Z,20.90
2017-12-23T12:20:21.825Z,20.90
2017-12-23T12:21:26.807Z,20.90
2017-12-23T12:22:31.793Z,20.90
2017-12-23T12:23:36.713Z,20.90
2017-12-23T12:24:41.603Z,20.90
2017-12-23T12:25:46.583Z,20.90
2017-12-23T12:26:51.689Z,20.90
2017-12-23T12:27:56.723Z,20.90
2017-12-23T12:29:01.690Z,20.90
2017-12-23T12:30:06.805Z,20.90
2017-12-23T12:31:11.738Z,20.90
2017-12-23T12:32:16.689Z,20.90
2017-12-23T12:33:21.884Z,21.00
2017-12-23T12:34:26.896Z,20.90
2017-12-23T12:35:31.875Z,20.90
2017-12-23T12:36:36.796Z,21.00
2017-12-23T12:37:41.880Z,21.00
2017-12-23T12:38:46.943Z,21.00
2017-12-23T12:39:51.973Z,21.00
2017-12-23T12:40:56.822Z,21.00
2017-12-23T12:42:01.826Z,21.00
2017-12-23T12:43:07.106Z,21.00
2017-12-23T12:44:12.038Z,21.00
2017-12-23T12:45:17.004Z,21.00
2017-12-23T12:46:22.680Z,21.00
2017-12-23T12:47:27.900Z,21.00
2017-12-23T12:48:33.709Z,21.00
2017-12-23T12:49:39.408Z,21.00
2017-12-23T12:50:44.902Z,21.00
2017-12-23T12:51:50.480Z,21.00
2017-12-23T12:52:56.793Z,21.00
2017-12-23T12:54:02.671Z,21.00
2017-12-23T12:55:09.151Z,21.00
2017-12-23T12:56:15.832Z,21.00
2017-12-23T12:57:22.819Z,21.00
2017-12-23T12:58:28.554Z,21.10
2017-12-23T12:59:34.137Z,21.10
2017-12-23T13:00:39.896Z,21.10
2017-12-23T13:01:45.548Z,21.10
2017-12-23T13:02:51.156Z,21.10
2017-12-23T13:03:57.316Z,21.10
2017-12-23T13:05:03.449Z,21.20
2017-12-23T13:06:09.498Z,21.20
2017-12-23T13:07:16.286Z,21.20
2017-12-23T13:08:22.378Z,21.20
2017-12-23T13:09:27.913Z,21.20
2017-12-23T13:10:33.708Z,21.20
2017-12-23T13:11:39.476Z,21.20
2017-12-23T13:12:45.339Z,21.20
2017-12-23T13:13:51.028Z,21.20
2017-12-23T13:14:56.609Z,21.20
2017-12-23T13:16:02.175Z,21.20
2017-12-23T13:17:07.868Z,21.10
2017-12-23T13:18:13.599Z,21.10
2017-12-23T13:19:19.063Z,21.10
2017-12-23T13:20:24.697Z,21.10
2017-12-23T13:21:30.716Z,21.10
2017-12-23T13:22:36.297Z,21.10
2017-12-23T13:23:42.391Z,21.10
2017-12-23T13:24:48.339Z,21.10
2017-12-23T13:25:54.234Z,21.10
2017-12-23T13:26:59.751Z,21.10
2017-12-23T13:28:05.459Z,21.20
2017-12-23T13:29:11.753Z,21.20
2017-12-23T13:30:17.286Z,21.20
2017-12-23T13:31:22.833Z,21.20
2017-12-23T13:32:28.449Z,21.20
2017-12-23T13:33:33.989Z,21.20
2017-12-23T13:34:39.725Z,21.20
2017-12-23T13:35:45.680Z,21.20
2017-12-23T13:36:51.546Z,21.20
2017-12-23T13:37:57.177Z,21.20
2017-12-23T13:39:02.228Z,21.30
2017-12-23T13:40:07.272Z,21.30
2017-12-23T13:41:12.296Z,21.30
2017-12-23T13:42:17.169Z,21.30
2017-12-23T13:43:22.137Z,21.30
2017-12-23T13:44:27.057Z,21.30
2017-12-23T13:45:31.869Z,21.30
2017-12-23T13:46:36.779Z,21.40
2017-12-23T13:47:41.882Z,21.40
2017-12-23T13:48:46.773Z,21.40
2017-12-23T13:49:51.789Z,21.40
2017-12-23T13:50:57.245Z,21.30
2017-12-23T13:52:02.271Z,21.30
2017-12-23T13:53:07.158Z,21.30
2017-12-23T13:54:11.979Z,21.30
2017-12-23T13:55:16.941Z,21.30
2017-12-23T13:56:21.975Z,21.30
2017-12-23T13:57:26.888Z,21.20
2017-12-23T13:58:31.957Z,21.20
2017-12-23T13:59:36.838Z,21.20
2017-12-23T14:00:41.811Z,21.20